Jacksonville Beach, FL (32250)

8:34 PM EDT on June 29, 2015 (GMT -0400)
RainmanWeather.com | | Change Station
CLOSE
Current Station
Personal Weather Station
Location: Jacksonville, FL
Elevation: 26 ft
Nearby Weather Stations

Elev 26 ft 30.29 °N, 81.44 °W | Updated 9 seconds ago

Clear
Clear
80.4 °F
Feels Like 86 °F
N
0.0
Wind Variable Wind from WSW
Gusts 0.0 mph

Today
High -- | Low -- °F
--% Chance of Precip.
Yesterday
High -- | Low -- °F
Precip. -- in
6:26 AM 8:31 PM
Waxing Gibbous, 95% visible
Pressure 30.01 in
Visibility 10.0 miles
Clouds Clear
Heat Index 86 °F
Dew Point 75 °F
Humidity 83%
Rainfall 0.05 in
Snow Depth Not available.
UV 0 out of 12
Pollen .50 out of 12
Air Quality Not available.
Flu Activity Sporadic
METAR KCRG 292353Z 20005KT 10SM CLR 28/22 A3001 RMK AO2 SLP161 T02830217 10300 20267 53001 $

More Conditions Fewer Conditions

Pressure 30.01 in
Visibility 10.0 miles
Clouds Clear
Heat Index 86 °F
Dew Point 75 °F
Humidity 83%
Rainfall 0.05 in
Snow Depth Not available.
UV 0 out of 12
Pollen .50 out of 12
Air Quality Not available.
Flu Activity Sporadic
METAR KCRG 292353Z 20005KT 10SM CLR 28/22 A3001 RMK AO2 SLP161 T02830217 10300 20267 53001 $

More Conditions Fewer Conditions

10-Day Weather Forecast

×

Almanac

Astronomy

Jun. 29, 2015 Rise Set
Actual Time
Civil Twilight
Nautical Twilight
Astronomical Twilight
Moon
Length of Visible Light
Length of Day
Tomorrow will be .
, % of the Moon is Illuminated

Today's Extremes

State Highs State Lows

Community

WunderPhotos

Upload Photos

1,833,903 photos uploaded!

WunderBlogs® & News

Nearby

Air Quality

  Air Quality AQ Index Pollutant
Not available.

Snow Depth

Station Depth Elevation

Earthquake Activity

City Distance Mag. Time & Date
Minimum magnitude displayed is 2.5.

Coastal Water Temperatures

Place Temperature

Stations

Nearby Weather Stations

Station Location Temp. Windchill Dew Point Humidity Wind Precip. Elev Updated Type